sensor_id;sensor_type;location;lat;lon;timestamp;P1;durP1;ratioP1;P2;durP2;ratioP2
5217;SDS011;26539;51.064;6.346;2023-05-01T00:00:23;5.80;;;3.10;;
5217;SDS011;26539;51.064;6.346;2023-05-01T00:02:49;12.43;;;3.63;;
5217;SDS011;26539;51.064;6.346;2023-05-01T00:05:14;11.07;;;2.73;;
5217;SDS011;26539;51.064;6.346;2023-05-01T00:07:40;9.40;;;3.10;;
5217;SDS011;26539;51.064;6.346;2023-05-01T00:10:06;14.20;;;3.83;;
5217;SDS011;26539;51.064;6.346;2023-05-01T00:12:32;12.87;;;3.20;;
5217;SDS011;26539;51.064;6.346;2023-05-01T00:14:57;13.13;;;3.07;;
5217;SDS011;26539;51.064;6.346;2023-05-01T00:17:23;7.00;;;2.70;;
5217;SDS011;26539;51.064;6.346;2023-05-01T00:19:52;5.00;;;3.03;;
5217;SDS011;26539;51.064;6.346;2023-05-01T00:22:18;7.90;;;2.77;;
5217;SDS011;26539;51.064;6.346;2023-05-01T00:24:44;9.87;;;3.00;;
5217;SDS011;26539;51.064;6.346;2023-05-01T00:27:11;5.30;;;2.87;;
5217;SDS011;26539;51.064;6.346;2023-05-01T00:29:37;3.67;;;2.70;;
5217;SDS011;26539;51.064;6.346;2023-05-01T00:32:03;7.90;;;2.97;;
5217;SDS011;26539;51.064;6.346;2023-05-01T00:34:29;3.40;;;3.10;;
5217;SDS011;26539;51.064;6.346;2023-05-01T00:36:55;8.37;;;3.30;;
5217;SDS011;26539;51.064;6.346;2023-05-01T00:39:20;3.40;;;2.93;;
5217;SDS011;26539;51.064;6.346;2023-05-01T00:41:46;5.47;;;3.50;;
5217;SDS011;26539;51.064;6.346;2023-05-01T00:44:11;3.50;;;3.00;;
5217;SDS011;26539;51.064;6.346;2023-05-01T00:46:37;4.53;;;3.23;;
5217;SDS011;26539;51.064;6.346;2023-05-01T00:49:03;4.03;;;2.90;;
5217;SDS011;26539;51.064;6.346;2023-05-01T00:51:28;8.10;;;3.00;;
5217;SDS011;26539;51.064;6.346;2023-05-01T00:53:55;4.57;;;2.97;;
5217;SDS011;26539;51.064;6.346;2023-05-01T00:56:23;3.23;;;2.90;;
5217;SDS011;26539;51.064;6.346;2023-05-01T00:58:50;4.60;;;3.30;;
5217;SDS011;26539;51.064;6.346;2023-05-01T01:01:17;10.40;;;3.37;;
5217;SDS011;26539;51.064;6.346;2023-05-01T01:03:44;5.20;;;3.23;;
5217;SDS011;26539;51.064;6.346;2023-05-01T01:09:12;3.93;;;3.40;;
5217;SDS011;26539;51.064;6.346;2023-05-01T01:14:41;7.10;;;4.07;;
5217;SDS011;26539;51.064;6.346;2023-05-01T01:20:03;4.90;;;3.60;;
5217;SDS011;26539;51.064;6.346;2023-05-01T01:23:02;6.63;;;3.17;;
5217;SDS011;26539;51.064;6.346;2023-05-01T01:31:59;6.77;;;2.93;;
5217;SDS011;26539;51.064;6.346;2023-05-01T01:34:34;8.27;;;3.57;;
5217;SDS011;26539;51.064;6.346;2023-05-01T01:37:52;10.03;;;3.03;;
5217;SDS011;26539;51.064;6.346;2023-05-01T01:40:28;5.47;;;3.53;;
5217;SDS011;26539;51.064;6.346;2023-05-01T01:42:57;5.70;;;3.30;;
5217;SDS011;26539;51.064;6.346;2023-05-01T01:45:29;8.10;;;3.60;;
5217;SDS011;26539;51.064;6.346;2023-05-01T01:48:00;6.37;;;3.00;;
5217;SDS011;26539;51.064;6.346;2023-05-01T01:50:28;9.23;;;3.33;;
5217;SDS011;26539;51.064;6.346;2023-05-01T01:52:56;6.43;;;3.83;;
5217;SDS011;26539;51.064;6.346;2023-05-01T01:55:26;5.70;;;3.53;;
5217;SDS011;26539;51.064;6.346;2023-05-01T01:57:55;6.30;;;3.50;;
5217;SDS011;26539;51.064;6.346;2023-05-01T02:00:23;6.90;;;3.97;;
5217;SDS011;26539;51.064;6.346;2023-05-01T02:02:49;7.93;;;3.47;;
5217;SDS011;26539;51.064;6.346;2023-05-01T02:05:16;6.17;;;3.83;;
5217;SDS011;26539;51.064;6.346;2023-05-01T02:07:44;5.67;;;3.47;;
5217;SDS011;26539;51.064;6.346;2023-05-01T02:10:15;6.13;;;3.70;;
5217;SDS011;26539;51.064;6.346;2023-05-01T02:12:42;6.60;;;3.70;;
5217;SDS011;26539;51.064;6.346;2023-05-01T02:15:10;6.40;;;4.17;;
5217;SDS011;26539;51.064;6.346;2023-05-01T02:17:37;4.00;;;3.53;;
5217;SDS011;26539;51.064;6.346;2023-05-01T02:20:05;6.73;;;4.07;;
5217;SDS011;26539;51.064;6.346;2023-05-01T02:22:33;4.63;;;3.57;;
5217;SDS011;26539;51.064;6.346;2023-05-01T02:24:59;5.87;;;3.87;;
5217;SDS011;26539;51.064;6.346;2023-05-01T02:27:34;4.90;;;3.97;;
5217;SDS011;26539;51.064;6.346;2023-05-01T02:30:02;4.50;;;3.40;;
5217;SDS011;26539;51.064;6.346;2023-05-01T02:32:29;4.97;;;4.10;;
5217;SDS011;26539;51.064;6.346;2023-05-01T02:34:55;5.00;;;3.90;;
5217;SDS011;26539;51.064;6.346;2023-05-01T02:37:21;8.87;;;3.70;;
5217;SDS011;26539;51.064;6.346;2023-05-01T02:39:47;6.23;;;4.17;;
5217;SDS011;26539;51.064;6.346;2023-05-01T02:42:13;4.30;;;3.90;;
5217;SDS011;26539;51.064;6.346;2023-05-01T02:44:54;6.40;;;4.00;;
5217;SDS011;26539;51.064;6.346;2023-05-01T02:47:22;7.37;;;3.90;;
5217;SDS011;26539;51.064;6.346;2023-05-01T02:49:48;9.07;;;3.90;;
5217;SDS011;26539;51.064;6.346;2023-05-01T02:52:16;4.30;;;3.90;;
5217;SDS011;26539;51.064;6.346;2023-05-01T02:54:43;8.30;;;4.40;;
5217;SDS011;26539;51.064;6.346;2023-05-01T02:57:12;5.47;;;4.70;;
5217;SDS011;26539;51.064;6.346;2023-05-01T02:59:38;4.30;;;3.90;;
5217;SDS011;26539;51.064;6.346;2023-05-01T03:02:06;6.70;;;4.10;;
5217;SDS011;26539;51.064;6.346;2023-05-01T03:04:32;9.40;;;4.13;;
5217;SDS011;26539;51.064;6.346;2023-05-01T03:06:58;11.70;;;5.87;;
5217;SDS011;26539;51.064;6.346;2023-05-01T03:09:23;9.80;;;6.77;;
5217;SDS011;26539;51.064;6.346;2023-05-01T03:11:49;7.57;;;5.30;;
5217;SDS011;26539;51.064;6.346;2023-05-01T03:14:15;15.77;;;8.73;;
5217;SDS011;26539;51.064;6.346;2023-05-01T03:16:40;19.73;;;10.47;;
5217;SDS011;26539;51.064;6.346;2023-05-01T03:19:06;17.50;;;10.00;;
5217;SDS011;26539;51.064;6.346;2023-05-01T03:21:32;8.67;;;6.10;;
5217;SDS011;26539;51.064;6.346;2023-05-01T03:23:58;9.97;;;6.73;;
5217;SDS011;26539;51.064;6.346;2023-05-01T03:26:24;10.80;;;5.00;;
5217;SDS011;26539;51.064;6.346;2023-05-01T03:28:49;10.97;;;6.40;;
5217;SDS011;26539;51.064;6.346;2023-05-01T03:31:15;10.80;;;5.70;;
5217;SDS011;26539;51.064;6.346;2023-05-01T03:33:41;9.50;;;5.80;;
5217;SDS011;26539;51.064;6.346;2023-05-01T03:36:06;9.83;;;6.20;;
5217;SDS011;26539;51.064;6.346;2023-05-01T03:38:35;9.50;;;5.40;;
5217;SDS011;26539;51.064;6.346;2023-05-01T03:41:00;13.30;;;6.47;;
5217;SDS011;26539;51.064;6.346;2023-05-01T03:43:30;15.53;;;6.57;;
5217;SDS011;26539;51.064;6.346;2023-05-01T03:45:56;8.17;;;7.10;;
5217;SDS011;26539;51.064;6.346;2023-05-01T03:48:25;12.70;;;6.33;;
5217;SDS011;26539;51.064;6.346;2023-05-01T03:50:50;10.20;;;6.00;;
5217;SDS011;26539;51.064;6.346;2023-05-01T03:53:16;10.10;;;5.77;;
5217;SDS011;26539;51.064;6.346;2023-05-01T03:55:42;10.53;;;5.40;;
5217;SDS011;26539;51.064;6.346;2023-05-01T03:58:08;6.60;;;5.80;;
5217;SDS011;26539;51.064;6.346;2023-05-01T04:00:34;5.83;;;5.17;;
5217;SDS011;26539;51.064;6.346;2023-05-01T04:03:01;8.80;;;5.40;;
5217;SDS011;26539;51.064;6.346;2023-05-01T04:05:27;8.17;;;4.87;;
5217;SDS011;26539;51.064;6.346;2023-05-01T04:07:52;7.60;;;5.20;;
5217;SDS011;26539;51.064;6.346;2023-05-01T04:10:18;9.57;;;5.57;;
5217;SDS011;26539;51.064;6.346;2023-05-01T04:12:44;4.80;;;4.30;;
5217;SDS011;26539;51.064;6.346;2023-05-01T04:15:10;6.43;;;5.00;;
5217;SDS011;26539;51.064;6.346;2023-05-01T04:17:35;5.47;;;4.90;;
5217;SDS011;26539;51.064;6.346;2023-05-01T04:20:02;7.37;;;6.00;;
5217;SDS011;26539;51.064;6.346;2023-05-01T04:22:29;8.27;;;4.90;;
5217;SDS011;26539;51.064;6.346;2023-05-01T04:24:55;10.50;;;4.90;;
5217;SDS011;26539;51.064;6.346;2023-05-01T04:27:24;5.50;;;4.37;;
5217;SDS011;26539;51.064;6.346;2023-05-01T04:29:50;8.40;;;5.20;;
5217;SDS011;26539;51.064;6.346;2023-05-01T04:32:16;6.07;;;4.90;;
5217;SDS011;26539;51.064;6.346;2023-05-01T04:34:41;6.37;;;4.30;;
5217;SDS011;26539;51.064;6.346;2023-05-01T04:37:10;8.70;;;5.33;;
5217;SDS011;26539;51.064;6.346;2023-05-01T04:39:36;7.23;;;4.73;;
5217;SDS011;26539;51.064;6.346;2023-05-01T04:42:02;7.30;;;4.87;;
5217;SDS011;26539;51.064;6.346;2023-05-01T04:44:28;8.20;;;4.77;;
5217;SDS011;26539;51.064;6.346;2023-05-01T04:46:54;10.37;;;5.30;;
5217;SDS011;26539;51.064;6.346;2023-05-01T04:49:20;7.47;;;4.40;;
5217;SDS011;26539;51.064;6.346;2023-05-01T04:51:46;4.60;;;4.03;;
5217;SDS011;26539;51.064;6.346;2023-05-01T04:54:11;6.20;;;4.80;;
5217;SDS011;26539;51.064;6.346;2023-05-01T04:56:37;5.87;;;4.90;;
5217;SDS011;26539;51.064;6.346;2023-05-01T04:59:02;5.60;;;4.60;;
5217;SDS011;26539;51.064;6.346;2023-05-01T05:01:28;5.10;;;4.40;;
5217;SDS011;26539;51.064;6.346;2023-05-01T05:03:54;7.17;;;4.70;;
5217;SDS011;26539;51.064;6.346;2023-05-01T05:06:19;6.50;;;5.30;;
5217;SDS011;26539;51.064;6.346;2023-05-01T05:08:45;7.00;;;5.00;;
5217;SDS011;26539;51.064;6.346;2023-05-01T05:11:11;6.40;;;5.07;;
5217;SDS011;26539;51.064;6.346;2023-05-01T05:13:36;8.70;;;5.50;;
5217;SDS011;26539;51.064;6.346;2023-05-01T05:16:02;6.47;;;5.30;;
5217;SDS011;26539;51.064;6.346;2023-05-01T05:18:28;6.53;;;4.73;;
5217;SDS011;26539;51.064;6.346;2023-05-01T05:20:53;9.70;;;5.90;;
5217;SDS011;26539;51.064;6.346;2023-05-01T05:23:19;6.97;;;5.53;;
5217;SDS011;26539;51.064;6.346;2023-05-01T05:25:45;11.53;;;4.80;;
5217;SDS011;26539;51.064;6.346;2023-05-01T05:28:10;7.43;;;5.60;;
5217;SDS011;26539;51.064;6.346;2023-05-01T05:30:36;5.23;;;4.60;;
5217;SDS011;26539;51.064;6.346;2023-05-01T05:33:02;5.10;;;4.60;;
5217;SDS011;26539;51.064;6.346;2023-05-01T05:35:27;6.50;;;5.63;;
5217;SDS011;26539;51.064;6.346;2023-05-01T05:37:53;6.90;;;4.70;;
5217;SDS011;26539;51.064;6.346;2023-05-01T05:40:18;7.80;;;5.73;;
5217;SDS011;26539;51.064;6.346;2023-05-01T05:42:44;5.70;;;5.10;;
5217;SDS011;26539;51.064;6.346;2023-05-01T05:45:09;9.23;;;5.33;;
5217;SDS011;26539;51.064;6.346;2023-05-01T05:47:35;8.17;;;5.50;;
5217;SDS011;26539;51.064;6.346;2023-05-01T05:50:01;8.30;;;6.30;;
5217;SDS011;26539;51.064;6.346;2023-05-01T05:52:28;8.07;;;6.20;;
5217;SDS011;26539;51.064;6.346;2023-05-01T05:54:53;6.03;;;5.43;;
5217;SDS011;26539;51.064;6.346;2023-05-01T05:57:19;7.33;;;5.53;;
5217;SDS011;26539;51.064;6.346;2023-05-01T05:59:44;9.77;;;5.20;;
5217;SDS011;26539;51.064;6.346;2023-05-01T06:02:10;8.33;;;5.57;;
5217;SDS011;26539;51.064;6.346;2023-05-01T06:04:35;6.23;;;5.13;;
5217;SDS011;26539;51.064;6.346;2023-05-01T06:07:01;7.23;;;5.43;;
5217;SDS011;26539;51.064;6.346;2023-05-01T06:09:26;7.70;;;5.60;;
5217;SDS011;26539;51.064;6.346;2023-05-01T06:11:52;8.23;;;6.50;;
5217;SDS011;26539;51.064;6.346;2023-05-01T06:14:17;7.63;;;6.23;;
5217;SDS011;26539;51.064;6.346;2023-05-01T06:16:43;6.00;;;5.40;;
5217;SDS011;26539;51.064;6.346;2023-05-01T06:19:08;7.60;;;6.17;;
5217;SDS011;26539;51.064;6.346;2023-05-01T06:21:36;7.87;;;6.30;;
5217;SDS011;26539;51.064;6.346;2023-05-01T06:24:01;9.63;;;6.87;;
5217;SDS011;26539;51.064;6.346;2023-05-01T06:26:27;7.00;;;5.97;;
5217;SDS011;26539;51.064;6.346;2023-05-01T06:28:53;7.53;;;5.87;;
5217;SDS011;26539;51.064;6.346;2023-05-01T06:31:18;7.33;;;6.30;;
5217;SDS011;26539;51.064;6.346;2023-05-01T06:33:44;8.00;;;5.83;;
5217;SDS011;26539;51.064;6.346;2023-05-01T06:36:10;8.23;;;5.90;;
5217;SDS011;26539;51.064;6.346;2023-05-01T06:38:35;8.50;;;6.20;;
5217;SDS011;26539;51.064;6.346;2023-05-01T06:41:01;11.40;;;5.60;;
5217;SDS011;26539;51.064;6.346;2023-05-01T06:43:29;8.17;;;5.40;;
5217;SDS011;26539;51.064;6.346;2023-05-01T06:45:55;6.63;;;5.30;;
5217;SDS011;26539;51.064;6.346;2023-05-01T06:48:21;7.50;;;5.60;;
5217;SDS011;26539;51.064;6.346;2023-05-01T06:50:46;6.57;;;4.80;;
5217;SDS011;26539;51.064;6.346;2023-05-01T06:53:12;5.80;;;5.20;;
5217;SDS011;26539;51.064;6.346;2023-05-01T06:55:37;5.63;;;5.07;;
5217;SDS011;26539;51.064;6.346;2023-05-01T06:58:03;5.20;;;4.70;;
5217;SDS011;26539;51.064;6.346;2023-05-01T07:00:30;7.37;;;5.20;;
5217;SDS011;26539;51.064;6.346;2023-05-01T07:02:56;6.70;;;5.50;;
5217;SDS011;26539;51.064;6.346;2023-05-01T07:05:21;11.00;;;5.40;;
5217;SDS011;26539;51.064;6.346;2023-05-01T07:07:47;5.87;;;4.27;;
5217;SDS011;26539;51.064;6.346;2023-05-01T07:10:13;4.87;;;4.30;;
5217;SDS011;26539;51.064;6.346;2023-05-01T07:12:39;6.80;;;4.60;;
5217;SDS011;26539;51.064;6.346;2023-05-01T07:15:05;6.93;;;4.80;;
5217;SDS011;26539;51.064;6.346;2023-05-01T07:17:32;5.03;;;4.63;;
5217;SDS011;26539;51.064;6.346;2023-05-01T07:19:58;6.83;;;4.80;;
5217;SDS011;26539;51.064;6.346;2023-05-01T07:22:25;10.33;;;4.60;;
5217;SDS011;26539;51.064;6.346;2023-05-01T07:24:50;5.43;;;4.47;;
5217;SDS011;26539;51.064;6.346;2023-05-01T07:27:16;5.77;;;4.27;;
5217;SDS011;26539;51.064;6.346;2023-05-01T07:29:42;7.83;;;3.93;;
5217;SDS011;26539;51.064;6.346;2023-05-01T07:32:08;5.13;;;4.50;;
5217;SDS011;26539;51.064;6.346;2023-05-01T07:34:34;3.97;;;3.53;;
5217;SDS011;26539;51.064;6.346;2023-05-01T07:36:59;4.30;;;3.90;;
5217;SDS011;26539;51.064;6.346;2023-05-01T07:39:25;5.40;;;3.60;;
5217;SDS011;26539;51.064;6.346;2023-05-01T07:41:50;5.40;;;3.23;;
5217;SDS011;26539;51.064;6.346;2023-05-01T07:44:16;5.07;;;3.80;;
5217;SDS011;26539;51.064;6.346;2023-05-01T07:46:42;6.93;;;3.50;;
5217;SDS011;26539;51.064;6.346;2023-05-01T07:49:07;5.60;;;3.90;;
5217;SDS011;26539;51.064;6.346;2023-05-01T07:51:33;3.80;;;3.50;;
5217;SDS011;26539;51.064;6.346;2023-05-01T07:53:58;3.47;;;3.17;;
5217;SDS011;26539;51.064;6.346;2023-05-01T07:56:31;4.40;;;3.97;;
5217;SDS011;26539;51.064;6.346;2023-05-01T07:58:57;4.43;;;4.00;;
5217;SDS011;26539;51.064;6.346;2023-05-01T08:01:23;3.97;;;3.53;;
5217;SDS011;26539;51.064;6.346;2023-05-01T08:03:49;6.97;;;4.00;;
5217;SDS011;26539;51.064;6.346;2023-05-01T08:06:15;7.43;;;4.00;;
5217;SDS011;26539;51.064;6.346;2023-05-01T08:08:40;4.10;;;3.70;;
5217;SDS011;26539;51.064;6.346;2023-05-01T08:11:07;3.87;;;3.50;;
5217;SDS011;26539;51.064;6.346;2023-05-01T08:13:33;4.70;;;3.23;;
5217;SDS011;26539;51.064;6.346;2023-05-01T08:16:02;4.60;;;3.83;;
5217;SDS011;26539;51.064;6.346;2023-05-01T08:18:28;3.13;;;2.83;;
5217;SDS011;26539;51.064;6.346;2023-05-01T08:20:54;4.70;;;3.20;;
5217;SDS011;26539;51.064;6.346;2023-05-01T08:23:20;4.73;;;4.23;;
5217;SDS011;26539;51.064;6.346;2023-05-01T08:25:46;4.97;;;3.10;;
5217;SDS011;26539;51.064;6.346;2023-05-01T08:28:14;4.07;;;3.03;;
5217;SDS011;26539;51.064;6.346;2023-05-01T08:30:40;3.53;;;2.97;;
5217;SDS011;26539;51.064;6.346;2023-05-01T08:33:06;5.83;;;3.07;;
5217;SDS011;26539;51.064;6.346;2023-05-01T08:35:32;2.93;;;2.70;;
5217;SDS011;26539;51.064;6.346;2023-05-01T08:37:57;4.60;;;2.80;;
5217;SDS011;26539;51.064;6.346;2023-05-01T08:40:23;4.60;;;2.67;;
5217;SDS011;26539;51.064;6.346;2023-05-01T08:42:50;3.23;;;2.93;;
5217;SDS011;26539;51.064;6.346;2023-05-01T08:45:16;3.20;;;2.77;;
5217;SDS011;26539;51.064;6.346;2023-05-01T08:47:47;4.90;;;2.57;;
5217;SDS011;26539;51.064;6.346;2023-05-01T08:50:14;2.93;;;2.73;;
5217;SDS011;26539;51.064;6.346;2023-05-01T08:52:41;5.40;;;2.97;;
5217;SDS011;26539;51.064;6.346;2023-05-01T08:55:16;4.40;;;2.77;;
5217;SDS011;26539;51.064;6.346;2023-05-01T08:57:45;4.20;;;3.10;;
5217;SDS011;26539;51.064;6.346;2023-05-01T09:00:20;4.27;;;3.00;;
5217;SDS011;26539;51.064;6.346;2023-05-01T09:02:49;4.40;;;2.63;;
5217;SDS011;26539;51.064;6.346;2023-05-01T09:05:16;4.50;;;2.93;;
5217;SDS011;26539;51.064;6.346;2023-05-01T09:07:43;3.53;;;3.23;;
5217;SDS011;26539;51.064;6.346;2023-05-01T09:10:14;3.50;;;2.63;;
5217;SDS011;26539;51.064;6.346;2023-05-01T09:12:41;4.00;;;2.90;;
5217;SDS011;26539;51.064;6.346;2023-05-01T09:15:10;5.00;;;3.93;;
5217;SDS011;26539;51.064;6.346;2023-05-01T09:17:37;3.53;;;2.90;;
5217;SDS011;26539;51.064;6.346;2023-05-01T09:20:03;5.27;;;3.17;;
5217;SDS011;26539;51.064;6.346;2023-05-01T09:22:30;4.60;;;3.60;;
5217;SDS011;26539;51.064;6.346;2023-05-01T09:24:56;3.53;;;2.50;;
5217;SDS011;26539;51.064;6.346;2023-05-01T09:27:23;3.23;;;2.47;;
5217;SDS011;26539;51.064;6.346;2023-05-01T09:29:50;4.40;;;2.63;;
5217;SDS011;26539;51.064;6.346;2023-05-01T09:32:17;2.83;;;2.07;;
5217;SDS011;26539;51.064;6.346;2023-05-01T09:34:49;2.27;;;2.07;;
5217;SDS011;26539;51.064;6.346;2023-05-01T09:37:26;2.87;;;2.50;;
5217;SDS011;26539;51.064;6.346;2023-05-01T09:42:32;3.73;;;2.83;;
5217;SDS011;26539;51.064;6.346;2023-05-01T09:44:59;4.63;;;2.60;;
5217;SDS011;26539;51.064;6.346;2023-05-01T09:47:26;4.00;;;3.07;;
5217;SDS011;26539;51.064;6.346;2023-05-01T09:49:53;3.10;;;2.70;;
5217;SDS011;26539;51.064;6.346;2023-05-01T09:52:20;5.90;;;2.80;;
5217;SDS011;26539;51.064;6.346;2023-05-01T09:54:46;3.60;;;2.60;;
5217;SDS011;26539;51.064;6.346;2023-05-01T09:57:12;2.90;;;2.13;;
5217;SDS011;26539;51.064;6.346;2023-05-01T09:59:37;3.60;;;2.90;;
5217;SDS011;26539;51.064;6.346;2023-05-01T10:02:03;3.17;;;2.67;;
5217;SDS011;26539;51.064;6.346;2023-05-01T10:04:32;3.30;;;3.00;;
5217;SDS011;26539;51.064;6.346;2023-05-01T10:07:14;3.33;;;2.97;;
5217;SDS011;26539;51.064;6.346;2023-05-01T10:09:39;4.30;;;3.30;;
5217;SDS011;26539;51.064;6.346;2023-05-01T10:12:07;3.13;;;2.83;;
5217;SDS011;26539;51.064;6.346;2023-05-01T10:14:33;4.40;;;3.40;;
5217;SDS011;26539;51.064;6.346;2023-05-01T10:17:16;3.83;;;3.20;;
5217;SDS011;26539;51.064;6.346;2023-05-01T10:19:45;6.90;;;3.47;;
5217;SDS011;26539;51.064;6.346;2023-05-01T10:22:11;3.73;;;3.43;;
5217;SDS011;26539;51.064;6.346;2023-05-01T10:24:37;5.57;;;3.50;;
5217;SDS011;26539;51.064;6.346;2023-05-01T10:27:05;3.83;;;3.53;;
5217;SDS011;26539;51.064;6.346;2023-05-01T10:29:32;4.90;;;3.60;;
5217;SDS011;26539;51.064;6.346;2023-05-01T10:32:00;3.87;;;3.23;;
5217;SDS011;26539;51.064;6.346;2023-05-01T10:34:28;4.70;;;3.50;;
5217;SDS011;26539;51.064;6.346;2023-05-01T10:36:57;5.00;;;3.33;;
5217;SDS011;26539;51.064;6.346;2023-05-01T10:39:33;4.20;;;3.00;;
5217;SDS011;26539;51.064;6.346;2023-05-01T10:42:06;3.77;;;3.40;;
5217;SDS011;26539;51.064;6.346;2023-05-01T10:44:38;4.90;;;3.63;;
5217;SDS011;26539;51.064;6.346;2023-05-01T10:50:01;3.87;;;3.03;;
5217;SDS011;26539;51.064;6.346;2023-05-01T10:58:12;5.63;;;2.90;;
5217;SDS011;26539;51.064;6.346;2023-05-01T11:03:59;2.97;;;2.67;;
5217;SDS011;26539;51.064;6.346;2023-05-01T11:06:28;3.03;;;2.70;;
5217;SDS011;26539;51.064;6.346;2023-05-01T11:08:55;4.33;;;3.30;;
5217;SDS011;26539;51.064;6.346;2023-05-01T11:13:59;3.13;;;2.83;;
5217;SDS011;26539;51.064;6.346;2023-05-01T11:19:07;4.07;;;2.93;;
5217;SDS011;26539;51.064;6.346;2023-05-01T11:21:35;4.53;;;3.07;;
5217;SDS011;26539;51.064;6.346;2023-05-01T11:24:03;4.73;;;3.20;;
5217;SDS011;26539;51.064;6.346;2023-05-01T11:26:29;2.47;;;2.20;;
5217;SDS011;26539;51.064;6.346;2023-05-01T11:28:58;3.80;;;3.03;;
5217;SDS011;26539;51.064;6.346;2023-05-01T11:31:25;3.10;;;2.77;;
5217;SDS011;26539;51.064;6.346;2023-05-01T11:33:51;3.63;;;2.60;;
5217;SDS011;26539;51.064;6.346;2023-05-01T11:36:20;2.77;;;2.13;;
5217;SDS011;26539;51.064;6.346;2023-05-01T11:38:53;5.70;;;2.90;;
5217;SDS011;26539;51.064;6.346;2023-05-01T11:41:24;3.80;;;3.50;;
5217;SDS011;26539;51.064;6.346;2023-05-01T11:43:54;5.23;;;4.47;;
5217;SDS011;26539;51.064;6.346;2023-05-01T11:46:25;5.10;;;4.10;;
5217;SDS011;26539;51.064;6.346;2023-05-01T11:48:56;4.60;;;4.13;;
5217;SDS011;26539;51.064;6.346;2023-05-01T11:51:23;5.70;;;5.20;;
5217;SDS011;26539;51.064;6.346;2023-05-01T11:54:00;6.50;;;5.90;;
5217;SDS011;26539;51.064;6.346;2023-05-01T11:56:27;9.07;;;6.20;;
5217;SDS011;26539;51.064;6.346;2023-05-01T11:58:57;7.70;;;7.00;;
5217;SDS011;26539;51.064;6.346;2023-05-01T12:01:33;6.13;;;5.53;;
5217;SDS011;26539;51.064;6.346;2023-05-01T12:03:59;6.70;;;6.00;;
5217;SDS011;26539;51.064;6.346;2023-05-01T12:06:35;8.93;;;7.07;;
5217;SDS011;26539;51.064;6.346;2023-05-01T12:09:14;7.73;;;6.33;;
5217;SDS011;26539;51.064;6.346;2023-05-01T12:11:42;9.70;;;6.90;;
5217;SDS011;26539;51.064;6.346;2023-05-01T12:14:09;7.00;;;6.23;;
5217;SDS011;26539;51.064;6.346;2023-05-01T12:16:36;8.77;;;6.90;;
5217;SDS011;26539;51.064;6.346;2023-05-01T12:19:04;10.40;;;5.80;;
5217;SDS011;26539;51.064;6.346;2023-05-01T12:21:30;6.53;;;5.63;;
5217;SDS011;26539;51.064;6.346;2023-05-01T12:23:56;9.77;;;6.47;;
5217;SDS011;26539;51.064;6.346;2023-05-01T12:26:31;7.90;;;7.10;;
5217;SDS011;26539;51.064;6.346;2023-05-01T12:28:57;8.57;;;6.50;;
5217;SDS011;26539;51.064;6.346;2023-05-01T12:31:24;6.63;;;6.03;;
5217;SDS011;26539;51.064;6.346;2023-05-01T12:33:51;6.30;;;5.70;;
5217;SDS011;26539;51.064;6.346;2023-05-01T12:36:21;7.10;;;5.47;;
5217;SDS011;26539;51.064;6.346;2023-05-01T12:39:00;5.63;;;5.13;;
5217;SDS011;26539;51.064;6.346;2023-05-01T12:41:37;8.00;;;5.60;;
5217;SDS011;26539;51.064;6.346;2023-05-01T12:44:20;5.20;;;4.50;;
5217;SDS011;26539;51.064;6.346;2023-05-01T12:49:28;5.80;;;4.37;;
5217;SDS011;26539;51.064;6.346;2023-05-01T12:51:57;5.40;;;4.90;;
5217;SDS011;26539;51.064;6.346;2023-05-01T12:54:26;5.23;;;4.73;;
5217;SDS011;26539;51.064;6.346;2023-05-01T12:56:53;5.00;;;4.13;;
5217;SDS011;26539;51.064;6.346;2023-05-01T12:59:39;4.27;;;3.70;;
5217;SDS011;26539;51.064;6.346;2023-05-01T13:02:09;3.13;;;2.83;;
5217;SDS011;26539;51.064;6.346;2023-05-01T13:04:37;5.73;;;3.37;;
5217;SDS011;26539;51.064;6.346;2023-05-01T13:07:21;5.27;;;4.73;;
5217;SDS011;26539;51.064;6.346;2023-05-01T13:09:51;4.47;;;3.87;;
5217;SDS011;26539;51.064;6.346;2023-05-01T13:12:21;3.10;;;2.80;;
5217;SDS011;26539;51.064;6.346;2023-05-01T13:14:47;3.53;;;2.70;;
5217;SDS011;26539;51.064;6.346;2023-05-01T13:17:20;6.80;;;2.60;;
5217;SDS011;26539;51.064;6.346;2023-05-01T13:19:54;3.87;;;3.13;;
5217;SDS011;26539;51.064;6.346;2023-05-01T13:25:00;5.27;;;4.77;;
5217;SDS011;26539;51.064;6.346;2023-05-01T13:27:29;3.30;;;2.57;;
5217;SDS011;26539;51.064;6.346;2023-05-01T13:29:56;3.23;;;2.93;;
5217;SDS011;26539;51.064;6.346;2023-05-01T13:32:23;6.13;;;2.80;;
5217;SDS011;26539;51.064;6.346;2023-05-01T13:34:49;4.10;;;2.33;;
5217;SDS011;26539;51.064;6.346;2023-05-01T13:37:15;5.53;;;2.47;;
5217;SDS011;26539;51.064;6.346;2023-05-01T13:39:41;3.27;;;2.60;;
5217;SDS011;26539;51.064;6.346;2023-05-01T13:42:10;4.13;;;2.40;;
5217;SDS011;26539;51.064;6.346;2023-05-01T13:44:44;4.10;;;2.40;;
5217;SDS011;26539;51.064;6.346;2023-05-01T13:47:15;2.63;;;2.07;;
5217;SDS011;26539;51.064;6.346;2023-05-01T13:49:42;3.40;;;1.93;;
5217;SDS011;26539;51.064;6.346;2023-05-01T13:52:18;2.80;;;2.17;;
5217;SDS011;26539;51.064;6.346;2023-05-01T13:54:45;2.30;;;2.10;;
5217;SDS011;26539;51.064;6.346;2023-05-01T13:57:11;2.73;;;2.47;;
5217;SDS011;26539;51.064;6.346;2023-05-01T13:59:38;2.60;;;2.00;;
5217;SDS011;26539;51.064;6.346;2023-05-01T14:04:50;3.10;;;2.53;;
5217;SDS011;26539;51.064;6.346;2023-05-01T14:07:17;2.57;;;1.90;;
5217;SDS011;26539;51.064;6.346;2023-05-01T14:09:44;3.57;;;2.27;;
5217;SDS011;26539;51.064;6.346;2023-05-01T14:12:15;2.13;;;1.93;;
5217;SDS011;26539;51.064;6.346;2023-05-01T14:14:44;2.50;;;2.30;;
5217;SDS011;26539;51.064;6.346;2023-05-01T14:17:12;3.30;;;2.10;;
5217;SDS011;26539;51.064;6.346;2023-05-01T14:19:38;2.47;;;2.00;;
5217;SDS011;26539;51.064;6.346;2023-05-01T14:22:06;2.67;;;2.00;;
5217;SDS011;26539;51.064;6.346;2023-05-01T14:24:34;2.53;;;1.90;;
5217;SDS011;26539;51.064;6.346;2023-05-01T14:27:05;4.67;;;2.53;;
5217;SDS011;26539;51.064;6.346;2023-05-01T14:29:33;2.83;;;2.50;;
5217;SDS011;26539;51.064;6.346;2023-05-01T14:32:02;2.30;;;2.10;;
5217;SDS011;26539;51.064;6.346;2023-05-01T14:34:28;2.60;;;2.40;;
5217;SDS011;26539;51.064;6.346;2023-05-01T14:36:54;2.73;;;2.10;;
5217;SDS011;26539;51.064;6.346;2023-05-01T14:39:20;3.40;;;2.20;;
5217;SDS011;26539;51.064;6.346;2023-05-01T14:41:46;2.80;;;2.40;;
5217;SDS011;26539;51.064;6.346;2023-05-01T14:44:15;3.00;;;2.40;;
5217;SDS011;26539;51.064;6.346;2023-05-01T14:46:44;5.57;;;2.70;;
5217;SDS011;26539;51.064;6.346;2023-05-01T14:49:16;2.33;;;1.80;;
5217;SDS011;26539;51.064;6.346;2023-05-01T14:51:48;7.43;;;5.20;;
5217;SDS011;26539;51.064;6.346;2023-05-01T14:54:15;4.63;;;2.00;;
5217;SDS011;26539;51.064;6.346;2023-05-01T14:56:41;2.40;;;2.10;;
5217;SDS011;26539;51.064;6.346;2023-05-01T14:59:07;2.33;;;2.13;;
5217;SDS011;26539;51.064;6.346;2023-05-01T15:01:32;2.60;;;2.40;;
5217;SDS011;26539;51.064;6.346;2023-05-01T15:03:58;3.73;;;2.33;;
5217;SDS011;26539;51.064;6.346;2023-05-01T15:06:24;3.17;;;2.73;;
5217;SDS011;26539;51.064;6.346;2023-05-01T15:08:50;2.60;;;2.40;;
5217;SDS011;26539;51.064;6.346;2023-05-01T15:11:16;3.80;;;2.60;;
5217;SDS011;26539;51.064;6.346;2023-05-01T15:13:42;3.17;;;2.40;;
5217;SDS011;26539;51.064;6.346;2023-05-01T15:16:09;3.20;;;2.90;;
5217;SDS011;26539;51.064;6.346;2023-05-01T15:18:35;4.60;;;3.93;;
5217;SDS011;26539;51.064;6.346;2023-05-01T15:21:01;3.87;;;3.57;;
5217;SDS011;26539;51.064;6.346;2023-05-01T15:23:26;3.50;;;3.13;;
5217;SDS011;26539;51.064;6.346;2023-05-01T15:25:52;3.90;;;3.50;;
5217;SDS011;26539;51.064;6.346;2023-05-01T15:28:18;5.83;;;4.47;;
5217;SDS011;26539;51.064;6.346;2023-05-01T15:30:44;5.30;;;4.80;;
5217;SDS011;26539;51.064;6.346;2023-05-01T15:33:11;5.90;;;4.70;;
5217;SDS011;26539;51.064;6.346;2023-05-01T15:35:37;7.80;;;7.10;;
5217;SDS011;26539;51.064;6.346;2023-05-01T15:38:02;9.53;;;8.47;;
5217;SDS011;26539;51.064;6.346;2023-05-01T15:40:28;10.63;;;8.80;;
5217;SDS011;26539;51.064;6.346;2023-05-01T15:42:54;9.87;;;8.40;;
5217;SDS011;26539;51.064;6.346;2023-05-01T15:45:19;10.47;;;7.87;;